Latest Weather Observations for Canberra

IDN60801

Issued at 2:42 am EDT Wednesday 19 February 2020 (issued every 10 minutes, with the page automatically refreshed every 10 minutes)

About weather observations | Map of weather stations | Latest weather observations for NSW | Other Formats
Station Details ID: 070351 Name: CANBERRA AIRPORT Lat: -35.31 Lon: 149.20 Height: 577.05 m
Data from the previous 72 hours. | See also: Recent months at Canberra
Date/Time
EDT
Temp
°C
App
Temp
°C
Dew
Point
°C
Rel
Hum
%
Delta-T
°C
Wind Press
QNH
hPa
Press
MSL
hPa
Rain since
9am
mm
Dir  Spd
km/h
Gust
km/h
Spd
kts
Gust
kts
19/02:30am 18.3 13.8 7.1 48 5.8 WNW 20 30 11 16 1003.7 1001.1 4.0
19/02:00am 17.6 14.6 7.6 52 5.2 NW 13 17 7 9 1003.8 1001.2 4.0
19/01:30am 19.1 14.7 7.2 46 6.2 WNW 20 28 11 15 1004.1 1001.5 4.0
19/01:00am 20.2 15.8 7.2 43 6.9 WNW 20 30 11 16 1004.2 1001.6 4.0
19/12:30am 20.3 16.8 8.9 48 6.2 WNW 17 22 9 12 1004.3 1001.7 4.0
19/12:00am 21.8 17.5 8.0 41 7.4 WNW 20 28 11 15 1004.5 1001.9 4.0
 
Date/Time
EDT
Temp
°C
App
Temp
°C
Dew
Point
°C
Rel
Hum
%
Delta-T
°C
Wind Press
QNH
hPa
Press
MSL
hPa
Rain since
9am
mm
Dir  Spd
km/h
Gust
km/h
Spd
kts
Gust
kts
18/11:30pm 22.1 16.7 7.9 40 7.6 WNW 26 37 14 20 1004.5 1001.9 4.0
18/11:00pm 23.4 18.7 9.4 41 7.8 WNW 24 33 13 18 1004.3 1001.7 4.0
18/10:30pm 23.6 19.9 11.6 47 6.9 NW 22 30 12 16 1004.4 1001.8 4.0
18/10:00pm 23.8 19.8 13.1 51 6.4 NNW 26 35 14 19 1004.3 1001.7 4.0
18/09:30pm 23.7 19.8 15.5 60 5.1 NNW 30 39 16 21 1003.5 1000.8 4.0
18/09:00pm 23.7 19.0 14.9 57 5.4 NNW 33 44 18 24 1002.9 1000.3 4.0
18/08:53pm 23.4 19.7 14.9 59 5.2 NNW 28 44 15 24 1002.8 1000.2 4.0
18/08:30pm 22.6 19.8 14.2 59 5.0 NNW 22 30 12 16 1002.8 1000.2 4.0
18/08:00pm 22.2 19.1 14.6 62 4.6 NNW 24 39 13 21 1003.7 1001.1 4.0
18/07:55pm 21.8 19.6 14.9 65 4.2 NW 20 39 11 21 1004.1 1001.5 4.0
18/07:50pm 21.7 19.3 15.3 67 3.9 W 22 54 12 29 1004.2 1001.6 4.0
18/07:43pm 21.4 16.6 16.6 74 3.0 WNW 37 57 20 31 1004.1 1001.5 3.6
18/07:40pm 22.0 17.4 15.1 65 4.2 NW 33 57 18 31 1004.0 1001.4 2.4
18/07:37pm 24.2 20.3 15.4 58 5.4 NW 30 54 16 29 1003.3 1000.6 1.0
18/07:30pm 27.3 24.1 14.3 45 8.0 NNW 24 33 13 18 1002.5 999.9 0.0
18/07:28pm 27.3 24.1 14.3 45 8.0 NNW 24 33 13 18 1002.3 999.7 0.0
18/07:00pm 28.6 23.9 14.4 41 8.8 NW 32 46 17 25 1002.9 1000.3 0.0
18/06:30pm 30.1 25.4 14.2 38 9.8 NW 32 43 17 23 1002.8 1000.2 0.0
18/06:00pm 29.7 26.0 13.9 38 9.8 NW 26 37 14 20 1002.9 1000.3 0.0
18/05:30pm 29.5 25.8 14.9 41 9.1 NNW 28 43 15 23 1003.8 1001.2 0.0
18/05:00pm 30.6 26.4 14.7 38 10.0 NW 30 43 16 23 1004.2 1001.6 0.0
18/04:30pm 30.2 28.8 16.6 44 8.7 WNW 19 26 10 14 1004.9 1002.3 0.0
18/04:00pm 29.4 28.2 16.2 44 8.4 W 17 24 9 13 1005.4 1002.8 0.0
18/03:30pm 29.5 26.8 15.6 43 8.8 NW 24 35 13 19 1005.7 1003.1 0.0
18/03:00pm 29.3 26.6 16.5 46 8.2 NW 26 35 14 19 1006.3 1003.7 0.0
18/02:30pm 29.4 26.2 17.2 47 7.9 NW 30 37 16 20 1007.1 1004.5 0.0
18/02:00pm 30.7 28.0 18.4 47 8.1 NW 30 44 16 24 1007.6 1005.0 0.0
18/01:30pm 28.5 26.5 18.3 54 6.7 NW 26 37 14 20 1008.2 1005.7 0.0
18/01:00pm 28.2 26.7 18.6 56 6.3 NW 24 33 13 18 1008.8 1006.2 0.0
18/12:30pm 27.5 25.3 18.8 59 5.7 NW 28 37 15 20 1009.4 1006.8 0.0
18/12:00pm 26.3 24.0 18.4 61 5.1 NW 28 35 15 19 1009.9 1007.4 0.0
18/11:30am 24.4 22.5 17.6 66 4.3 NNW 24 32 13 17 1010.3 1007.8 0.0
18/11:02am 24.7 22.7 19.1 71 3.7 NNW 28 39 15 21 1010.7 1008.1 0.0
18/11:00am 24.7 22.7 19.1 71 3.7 NNW 28 39 15 21 1010.8 1008.2 0.0
18/10:30am 22.8 20.9 18.6 77 2.7 NNW 26 33 14 18 1010.9 1008.3 0.0
18/10:00am 22.2 20.9 18.2 78 2.6 NNW 22 32 12 17 1010.9 1008.3 0.0
18/09:58am 21.9 20.1 17.9 78 2.5 NNW 24 32 13 17 1010.9 1008.3 0.0
18/09:30am 21.3 19.9 17.9 81 2.2 NNW 22 30 12 16 1011.0 1008.4 0.0
18/09:00am 20.9 20.4 17.9 83 1.9 N 17 26 9 14 1011.2 1008.6 0.0
18/08:30am 20.6 19.8 18.0 85 1.6 N 19 24 10 13 1011.2 1008.6 0.0
18/08:00am 20.0 21.4 18.7 92 0.8 N 9 13 5 7 1011.3 1008.8 0.0
18/07:30am 19.7 21.4 18.5 93 0.8 N 7 9 4 5 1011.3 1008.8 0.0
18/07:00am 19.3 21.0 18.5 95 0.5 NNW 7 7 4 4 1011.4 1008.9 0.0
18/06:30am 19.1 21.3 18.4 96 0.4 N 4 9 2 5 1011.4 1008.9 0.0
18/06:00am 19.0 21.9 18.2 95 0.5 CALM 0 0 0 0 1011.5 1009.0 0.0
18/05:31am 18.9 20.6 18.4 97 0.3 NNW 7 9 4 5 1011.4 1008.9 0.0
18/05:30am 18.9 20.6 18.4 97 0.3 N 7 9 4 5 1011.3 1008.8 0.0
18/05:00am 18.8 20.5 18.6 99 0.1 N 7 9 4 5 1011.3 1008.8 0.0
18/04:30am 18.1 19.7 17.9 99 0.1 N 6 7 3 4 1011.5 1009.0 0.0
18/04:00am 18.0 20.7 17.8 99 0.1 CALM 0 6 0 3 1011.7 1009.2 0.0
18/03:30am 18.0 19.6 17.8 99 0.1 N 6 7 3 4 1011.8 1009.3 0.0
18/03:00am 18.2 19.7 17.6 96 0.4 N 6 9 3 5 1011.8 1009.3 0.0
18/02:30am 18.4 20.2 17.4 94 0.6 NNE 4 11 2 6 1012.3 1009.8 0.0
18/02:00am 19.2 20.6 17.7 91 0.9 E 7 9 4 5 1012.3 1009.8 0.0
18/01:30am 19.3 20.4 18.0 92 0.8 ESE 9 11 5 6 1012.8 1010.3 0.0
18/01:00am 19.0 20.4 17.7 92 0.8 SE 7 9 4 5 1012.9 1010.4 0.0
18/12:30am 19.3 20.2 17.6 90 1.1 ESE 9 11 5 6 1013.0 1010.5 0.0
18/12:00am 19.6 21.0 17.7 89 1.2 SE 7 11 4 6 1013.1 1010.6 0.0
 
Date/Time
EDT
Temp
°C
App
Temp
°C
Dew
Point
°C
Rel
Hum
%
Delta-T
°C
Wind Press
QNH
hPa
Press
MSL
hPa
Rain since
9am
mm
Dir  Spd
km/h
Gust
km/h
Spd
kts
Gust
kts
17/11:30pm 19.6 20.8 17.4 87 1.4 SSE 7 9 4 5 1013.3 1010.8 0.0
17/11:00pm 19.8 21.0 17.4 86 1.5 ESE 7 11 4 6 1013.3 1010.8 0.0
17/10:30pm 19.9 20.7 17.3 85 1.6 E 9 11 5 6 1013.5 1011.0 0.0
17/10:00pm 20.0 20.7 17.0 83 1.9 E 9 11 5 6 1013.7 1011.2 0.0
17/09:30pm 20.4 20.6 16.8 80 2.2 E 11 17 6 9 1013.4 1010.9 0.0
17/09:00pm 21.1 21.4 17.1 78 2.5 NE 11 13 6 7 1013.1 1010.6 0.0
17/08:30pm 21.7 22.3 16.9 74 3.0 ENE 9 13 5 7 1012.9 1010.4 0.0
17/08:00pm 22.1 23.4 17.0 73 3.2 ENE 6 11 3 6 1012.3 1009.8 0.0
17/07:30pm 22.6 21.3 16.9 70 3.6 ENE 19 26 10 14 1012.0 1009.5 0.0
17/07:00pm 23.5 22.1 17.0 67 4.1 ENE 20 28 11 15 1011.7 1009.2 0.0
17/06:30pm 24.6 23.5 17.3 64 4.6 ENE 19 28 10 15 1011.6 1009.1 0.0
17/06:00pm 24.6 22.7 16.8 62 4.9 E 22 28 12 15 1011.4 1008.9 0.0
17/05:30pm 25.3 24.8 17.0 60 5.3 ENE 15 19 8 10 1011.5 1009.0 0.0
17/05:00pm 24.9 23.9 16.6 60 5.2 NE 17 24 9 13 1011.6 1009.1 0.0
17/04:30pm 25.1 24.6 16.0 57 5.7 NE 13 24 7 13 1012.1 1009.6 0.0
17/04:00pm 24.9 24.9 16.3 59 5.4 NE 11 17 6 9 1012.7 1010.1 0.0
17/03:30pm 24.5 23.7 16.0 59 5.3 NE 15 24 8 13 1013.1 1010.6 0.0
17/03:00pm 25.2 24.7 16.9 60 5.3 NE 15 24 8 13 1013.3 1010.8 0.0
17/02:30pm 24.4 22.8 16.1 60 5.2 NE 19 28 10 15 1013.8 1011.3 0.0
17/02:00pm 23.4 22.7 15.5 61 4.9 NE 13 26 7 14 1014.1 1011.6 0.0
17/01:30pm 23.4 21.6 15.5 61 4.9 NNE 19 28 10 15 1014.4 1011.9 0.0
17/01:00pm 23.2 22.4 16.0 64 4.5 NE 15 20 8 11 1014.8 1012.3 0.0
17/12:30pm 22.8 22.0 15.1 62 4.7 NNE 13 17 7 9 1015.1 1012.6 0.0
17/12:00pm 22.6 22.7 15.4 64 4.4 N 9 17 5 9 1015.5 1013.0 0.0
17/11:30am 21.9 21.4 15.0 65 4.2 NNE 11 15 6 8 1015.9 1013.5 0.0
17/11:10am 21.1 20.9 14.7 67 3.9 NNE 9 13 5 7 1016.3 1013.8 0.0
17/11:00am 21.3 21.2 14.9 67 3.9 NNE 9 15 5 8 1016.5 1014.0 0.0
17/10:30am 20.7 21.0 15.0 70 3.4 SE 7 11 4 6 1016.6 1014.1 0.0
17/10:00am 19.7 20.0 14.5 72 3.1 E 6 9 3 5 1016.8 1014.3 0.0
17/09:30am 19.2 19.5 14.9 76 2.6 SE 7 9 4 5 1016.9 1014.4 0.0
17/09:00am 18.3 17.9 14.2 77 2.4 ESE 9 13 5 7 1017.1 1014.6 0.0
17/08:30am 18.1 17.7 14.2 78 2.3 SE 9 11 5 6 1017.3 1014.8 0.0
17/08:00am 17.6 16.8 13.9 79 2.2 SE 11 15 6 8 1017.0 1014.5 0.0
17/07:30am 17.3 17.4 14.0 81 1.9 E 6 11 3 6 1017.1 1014.6 0.0
17/07:00am 17.2 16.7 13.9 81 1.9 ESE 9 11 5 6 1016.9 1014.4 0.0
17/06:30am 17.2 18.4 13.9 81 1.9 CALM 0 0 0 0 1016.7 1014.2 0.0
17/06:00am 17.2 18.4 13.7 80 2.0 CALM 0 0 0 0 1016.6 1014.1 0.0
17/05:30am 17.1 17.2 13.8 81 1.9 SE 6 7 3 4 1016.3 1013.8 0.0
17/05:00am 17.2 17.2 14.3 83 1.7 SE 7 9 4 5 1016.3 1013.8 0.0
17/04:30am 17.2 16.7 13.9 81 1.9 SSE 9 9 5 5 1016.4 1013.9 0.0
17/04:00am 17.2 17.1 13.9 81 1.9 SSE 7 11 4 6 1016.5 1014.0 0.0
17/03:30am 17.1 16.5 13.6 80 2.0 SSE 9 11 5 6 1016.4 1013.9 0.0
17/03:00am 17.0 18.3 14.1 83 1.7 CALM 0 0 0 0 1016.5 1014.0 0.0
17/02:30am 16.9 16.7 13.6 81 1.9 ESE 7 7 4 4 1016.9 1014.4 0.0
17/02:00am 16.9 16.3 13.6 81 1.9 ESE 9 9 5 5 1017.1 1014.6 0.0
17/01:30am 16.9 16.3 13.6 81 1.9 ESE 9 11 5 6 1017.3 1014.8 0.0
17/01:27am 16.9 16.4 13.8 82 1.8 SE 9 13 5 7 1017.3 1014.8 0.0
17/01:23am 16.9 16.5 14.0 83 1.7 SE 9 13 5 7 1017.4 1015.0 0.0
17/01:00am 16.7 16.3 14.0 84 1.6 E 9 13 5 7 1017.4 1015.0 0.0
17/12:30am 17.1 15.8 13.6 80 2.0 ESE 13 20 7 11 1017.5 1015.1 0.0
17/12:00am 17.3 16.9 14.0 81 1.9 ESE 9 15 5 8 1017.5 1015.1 0.0
 
Date/Time
EDT
Temp
°C
App
Temp
°C
Dew
Point
°C
Rel
Hum
%
Delta-T
°C
Wind Press
QNH
hPa
Press
MSL
hPa
Rain since
9am
mm
Dir  Spd
km/h
Gust
km/h
Spd
kts
Gust
kts
16/11:47pm 17.2 18.0 13.7 80 2.0 N 2 9 1 5 1017.5 1015.1 0.0
16/11:30pm 17.2 16.4 13.9 81 1.9 N 11 17 6 9 1017.3 1014.8 0.0
16/11:00pm 17.3 16.4 13.6 79 2.1 NE 11 13 6 7 1017.6 1015.2 0.0
16/10:59pm 17.4 16.5 13.7 79 2.2 NE 11 13 6 7 1017.6 1015.2 0.0
16/10:30pm 18.0 16.8 13.9 77 2.4 ESE 13 17 7 9 1018.1 1015.6 0.0
16/10:00pm 18.3 17.2 14.2 77 2.4 SE 13 19 7 10 1018.2 1015.7 0.0
16/09:37pm 18.3 17.5 14.0 76 2.5 ESE 11 15 6 8 1018.0 1015.5 0.0
16/09:30pm 18.4 18.1 14.3 77 2.4 ESE 9 15 5 8 1018.0 1015.5 0.0
16/09:04pm 18.3 16.0 14.0 76 2.5 E 19 26 10 14 1017.5 1015.1 0.0
16/09:00pm 18.3 15.4 14.0 76 2.5 ESE 22 39 12 21 1017.3 1014.8 0.0
16/08:47pm 18.5 16.5 14.0 75 2.6 ESE 17 32 9 17 1017.1 1014.6 0.0
16/08:30pm 18.7 17.3 14.6 77 2.4 ESE 15 20 8 11 1017.1 1014.6 0.0
16/08:00pm 18.8 15.2 14.1 74 2.8 E 26 32 14 17 1016.9 1014.4 0.0
16/07:54pm 18.9 15.4 14.4 75 2.7 E 26 32 14 17 1016.7 1014.2 0.0
16/07:30pm 19.2 15.5 14.0 72 3.1 E 26 37 14 20 1016.7 1014.2 0.0
16/07:20pm 19.4 16.6 14.4 73 3.0 E 22 32 12 17 1016.6 1014.1 0.0
16/07:00pm 19.3 16.0 13.9 71 3.2 E 24 35 13 19 1016.0 1013.6 0.0
16/06:30pm 20.4 16.5 14.3 68 3.6 E 28 35 15 19 1015.5 1013.0 0.0
16/06:00pm 21.3 16.1 14.5 65 4.1 E 35 46 19 25 1015.2 1012.7 0.0
16/05:30pm 22.6 18.0 15.0 62 4.6 E 33 43 18 23 1015.0 1012.5 0.0
16/05:00pm 23.8 19.4 15.6 60 5.1 ENE 33 44 18 24 1014.9 1012.4 0.0
16/04:30pm 23.6 19.6 15.1 59 5.2 ENE 30 39 16 21 1014.7 1012.2 0.0
16/04:00pm 24.8 21.1 16.0 58 5.5 ENE 30 37 16 20 1014.6 1012.1 0.0
16/03:30pm 23.5 20.5 14.8 58 5.3 ENE 24 33 13 18 1015.0 1012.5 0.0
16/03:00pm 24.2 21.4 14.3 54 6.0 ENE 22 30 12 16 1014.8 1012.3 0.0
16/02:30pm 25.0 22.7 14.2 51 6.6 ENE 19 30 10 16 1015.1 1012.6 0.0
16/02:00pm 25.2 22.9 15.8 56 5.9 ENE 22 32 12 17 1015.3 1012.8 0.0
16/01:30pm 24.2 22.1 15.1 56 5.6 ENE 20 28 11 15 1015.7 1013.2 0.0
16/01:00pm 23.3 21.0 14.6 58 5.3 ENE 20 30 11 16 1015.7 1013.2 0.0
16/12:30pm 23.6 22.5 14.3 56 5.6 ESE 13 30 7 16 1016.0 1013.6 0.0
16/12:00pm 22.9 19.9 12.5 52 6.1 E 20 30 11 16 1016.3 1013.8 0.0
16/11:30am 23.7 21.2 13.6 53 6.0 ESE 19 26 10 14 1016.5 1014.0 0.0
16/11:00am 21.9 21.8 13.8 60 4.8 ENE 7 13 4 7 1016.7 1014.2 0.0
16/10:30am 21.0 19.8 13.9 64 4.2 ESE 13 19 7 10 1016.7 1014.2 0.0
16/10:00am 20.8 19.4 14.5 67 3.8 E 15 20 8 11 1016.5 1014.0 0.0
16/09:54am 20.6 19.0 14.0 66 3.9 ESE 15 22 8 12 1016.5 1014.0 0.0
16/09:38am 20.3 19.1 14.0 67 3.7 SE 13 19 7 10 1016.5 1014.0 0.0
16/09:30am 20.0 18.6 13.5 66 3.8 ESE 13 19 7 10 1016.6 1014.1 0.0
16/09:00am 19.2 17.6 13.8 71 3.2 SE 15 19 8 10 1016.6 1014.1 6.8
16/08:30am 18.8 18.8 15.1 79 2.2 ESE 9 13 5 7 1016.6 1014.1 6.8
16/08:00am 17.7 17.9 14.8 83 1.7 SE 7 9 4 5 1016.2 1013.7 6.8
16/07:30am 16.7 17.0 14.9 89 1.1 ESE 7 11 4 6 1015.6 1013.1 6.8
16/07:00am 16.5 16.4 15.0 91 0.9 ESE 9 15 5 8 1015.2 1012.7 6.8
16/06:30am 16.5 16.5 15.2 92 0.8 ESE 9 11 5 6 1014.6 1012.1 6.8
16/06:00am 16.4 16.8 15.4 94 0.6 SE 7 9 4 5 1014.3 1011.7 6.8
16/05:30am 16.7 17.3 15.4 92 0.8 SSE 6 11 3 6 1013.9 1011.4 6.8
16/05:00am 16.8 18.6 15.5 92 0.8 CALM 0 0 0 0 1013.8 1011.3 6.8
16/04:43am 16.5 18.3 15.5 94 0.6 CALM 0 4 0 2 1013.6 1011.1 6.8
16/04:30am 16.5 17.1 15.7 95 0.5 NE 7 9 4 5 1013.7 1011.2 6.8
16/04:00am 16.5 16.5 16.2 98 0.2 E 11 13 6 7 1013.6 1011.1 6.8
16/03:52am 16.4 16.3 16.1 98 0.2 ENE 11 15 6 8 1013.6 1011.1 6.8
16/03:30am 16.0 17.9 15.8 99 0.1 CALM 0 0 0 0 1013.5 1011.0 6.8
16/03:00am 16.2 18.2 16.0 99 0.1 CALM 0 0 0 0 1013.4 1010.9 6.8

Other formats

Comma delimited format used in spreadsheet applications
http://www.bom.gov.au/fwo/IDN60801/IDN60801.94926.axf

JavaScript Object Notation format (JSON) in row-major order
http://www.bom.gov.au/fwo/IDN60801/IDN60801.94926.json

Data quality

Most of these data are generated automatically and are frequently updated. Quality checks on data are not normally performed. It is possible for incorrect values to appear. Refer to information at About Latest Weather Observations and please check the disclaimer before using these data.